createdAt,value
2019-02-28T00:02:29.855Z,9.27
2019-02-28T00:04:58.335Z,5.77
2019-02-28T00:07:34.610Z,4.97
2019-02-28T00:10:08.946Z,5.30
2019-02-28T00:12:40.050Z,6.13
2019-02-28T00:15:14.205Z,6.27
2019-02-28T00:17:45.617Z,5.77
2019-02-28T00:20:25.621Z,5.10
2019-02-28T00:22:56.746Z,4.53
2019-02-28T00:25:29.441Z,5.27
2019-02-28T00:27:57.862Z,5.07
2019-02-28T00:30:29.101Z,4.77
2019-02-28T00:32:59.372Z,3.97
2019-02-28T00:35:30.122Z,4.13
2019-02-28T00:38:04.381Z,4.47
2019-02-28T00:40:38.535Z,5.00
2019-02-28T00:43:10.242Z,4.80
2019-02-28T00:45:38.663Z,5.00
2019-02-28T00:48:07.382Z,4.87
2019-02-28T00:50:35.795Z,6.10
2019-02-28T00:53:11.709Z,4.90
2019-02-28T00:55:40.118Z,5.10
2019-02-28T00:58:08.537Z,5.70
2019-02-28T01:00:38.164Z,7.93
2019-02-28T01:03:08.538Z,5.50
2019-02-28T01:05:41.410Z,4.67
2019-02-28T01:08:12.713Z,6.50
2019-02-28T01:10:42.838Z,5.13
2019-02-28T01:13:42.894Z,5.60
2019-02-28T01:15:44.857Z,5.27
2019-02-28T01:18:19.183Z,5.30
2019-02-28T01:20:56.607Z,5.23
2019-02-28T01:23:30.463Z,4.30
2019-02-28T01:26:07.829Z,3.73
2019-02-28T01:28:40.019Z,4.80
2019-02-28T01:31:11.666Z,6.80
2019-02-28T01:33:42.593Z,3.50
2019-02-28T01:36:15.554Z,3.33
2019-02-28T01:38:51.908Z,4.60
2019-02-28T01:41:20.314Z,4.23
2019-02-28T01:43:51.850Z,4.57
2019-02-28T01:46:21.912Z,4.37
2019-02-28T01:48:55.218Z,4.07
2019-02-28T01:51:36.581Z,4.13
2019-02-28T01:54:05.778Z,4.17
2019-02-28T01:56:37.889Z,4.37
2019-02-28T01:59:12.585Z,4.17
2019-02-28T02:01:43.729Z,5.07
2019-02-28T02:04:17.935Z,4.20
2019-02-28T02:06:47.416Z,3.40
2019-02-28T02:09:20.226Z,5.10
2019-02-28T02:11:54.385Z,4.53
2019-02-28T02:14:31.817Z,6.03
2019-02-28T02:17:02.266Z,5.50
2019-02-28T02:19:30.489Z,4.87
2019-02-28T02:22:09.193Z,5.83
2019-02-28T02:24:35.302Z,5.13
2019-02-28T02:27:03.789Z,5.97
2019-02-28T02:29:32.382Z,5.77
2019-02-28T02:32:08.141Z,5.33
2019-02-28T02:34:36.590Z,6.30
2019-02-28T02:37:05.022Z,5.17
2019-02-28T02:39:36.441Z,6.40
2019-02-28T02:42:11.444Z,7.53
2019-02-28T02:44:37.919Z,6.17
2019-02-28T02:47:06.344Z,4.57
2019-02-28T02:49:34.769Z,4.80
2019-02-28T02:52:04.083Z,5.67
2019-02-28T02:54:37.855Z,6.93
2019-02-28T02:57:09.240Z,5.83
2019-02-28T02:59:39.623Z,5.33
2019-02-28T03:02:08.049Z,4.87
2019-02-28T03:04:39.416Z,5.03
2019-02-28T03:07:07.850Z,4.43
2019-02-28T03:09:36.266Z,3.67
2019-02-28T03:12:06.709Z,4.30
2019-02-28T03:14:35.129Z,4.40
2019-02-28T03:17:09.658Z,6.27
2019-02-28T03:19:35.325Z,4.63
2019-02-28T03:22:03.734Z,4.50
2019-02-28T03:24:32.163Z,5.40
2019-02-28T03:27:00.869Z,4.43
2019-02-28T03:29:29.290Z,4.37
2019-02-28T03:32:06.143Z,5.57
2019-02-28T03:34:40.403Z,4.63
2019-02-28T03:37:08.891Z,5.27
2019-02-28T03:39:37.306Z,5.03
2019-02-28T03:42:05.745Z,6.83
2019-02-28T03:44:34.201Z,5.47
2019-02-28T03:47:02.628Z,5.07
2019-02-28T03:49:31.053Z,5.87
2019-02-28T03:52:06.660Z,5.93
2019-02-28T03:54:32.653Z,6.57
2019-02-28T03:57:05.622Z,6.30
2019-02-28T03:59:38.537Z,5.47
2019-02-28T04:02:08.612Z,4.27
2019-02-28T04:04:39.723Z,4.70
2019-02-28T04:07:15.541Z,5.10
2019-02-28T04:09:45.176Z,5.80
2019-02-28T04:12:15.361Z,3.73
2019-02-28T04:14:46.726Z,5.67
2019-02-28T04:17:29.828Z,5.97
2019-02-28T04:19:59.994Z,6.30
2019-02-28T04:22:29.487Z,6.10
2019-02-28T04:25:02.694Z,9.53
2019-02-28T04:27:34.364Z,7.97
2019-02-28T04:30:08.602Z,7.03
2019-02-28T04:32:41.523Z,7.13
2019-02-28T04:35:10.486Z,7.27
2019-02-28T04:37:44.893Z,7.60
2019-02-28T04:40:14.658Z,6.63
2019-02-28T04:42:46.037Z,10.57
2019-02-28T04:45:16.698Z,7.70
2019-02-28T04:47:47.929Z,5.87
2019-02-28T04:50:19.469Z,9.53
2019-02-28T04:52:48.291Z,7.97
2019-02-28T04:55:17.794Z,6.93
2019-02-28T04:57:56.090Z,7.93
2019-02-28T05:00:27.242Z,7.90
2019-02-28T05:02:55.657Z,10.83
2019-02-28T05:05:25.131Z,17.60
2019-02-28T05:08:05.827Z,22.63
2019-02-28T05:10:32.729Z,23.67
2019-02-28T05:13:01.145Z,18.43
2019-02-28T05:15:38.474Z,21.20
2019-02-28T05:18:09.049Z,13.13
2019-02-28T05:20:45.116Z,15.37
2019-02-28T05:23:10.598Z,16.03
2019-02-28T05:25:41.691Z,15.90
2019-02-28T05:28:12.450Z,16.40
2019-02-28T05:30:43.933Z,15.73
2019-02-28T05:33:15.305Z,15.93
2019-02-28T05:35:49.123Z,14.37
2019-02-28T05:38:20.737Z,13.60
2019-02-28T05:40:50.577Z,12.97
2019-02-28T05:43:20.629Z,15.07
2019-02-28T05:45:52.473Z,16.03
2019-02-28T05:48:25.370Z,13.40
2019-02-28T05:50:56.442Z,11.60
2019-02-28T05:53:27.827Z,13.23
2019-02-28T05:55:59.748Z,16.00
2019-02-28T05:58:40.193Z,15.67
2019-02-28T06:01:16.254Z,13.83
2019-02-28T06:03:44.670Z,14.13
2019-02-28T06:06:17.275Z,13.93
2019-02-28T06:08:44.962Z,13.53
2019-02-28T06:11:17.944Z,14.00
2019-02-28T06:13:49.639Z,14.73
2019-02-28T06:16:19.544Z,15.50
2019-02-28T06:18:49.589Z,16.30
2019-02-28T06:21:18.021Z,16.87
2019-02-28T06:23:54.445Z,21.47
2019-02-28T06:26:22.875Z,14.93
2019-02-28T06:28:51.610Z,13.63
2019-02-28T06:31:22.962Z,15.03
2019-02-28T06:34:05.668Z,13.43
2019-02-28T06:36:35.929Z,16.13
2019-02-28T06:39:09.801Z,14.30
2019-02-28T06:41:50.294Z,14.73
2019-02-28T06:44:27.051Z,16.40
2019-02-28T06:46:58.621Z,16.90
2019-02-28T06:49:32.274Z,15.87
2019-02-28T06:52:04.922Z,17.80
2019-02-28T06:54:42.065Z,19.07
2019-02-28T06:57:14.889Z,16.47
2019-02-28T06:59:43.305Z,19.37
2019-02-28T07:02:11.984Z,15.70
2019-02-28T07:04:52.338Z,14.37
2019-02-28T07:07:26.506Z,14.30
2019-02-28T07:09:54.922Z,15.67
2019-02-28T07:12:29.514Z,16.57
2019-02-28T07:14:59.294Z,14.57
2019-02-28T07:17:29.366Z,16.53
2019-02-28T07:20:04.266Z,14.87
2019-02-28T07:22:35.498Z,15.77
2019-02-28T07:25:09.462Z,17.17
2019-02-28T07:27:42.973Z,14.87
2019-02-28T07:30:19.616Z,16.17
2019-02-28T07:32:54.150Z,15.50
2019-02-28T07:35:25.664Z,13.30
2019-02-28T07:37:55.763Z,17.40
2019-02-28T07:40:24.237Z,15.03
2019-02-28T07:42:55.340Z,14.93
2019-02-28T07:45:29.696Z,14.53
2019-02-28T07:47:59.493Z,17.13
2019-02-28T07:50:32.475Z,14.23
2019-02-28T07:53:09.824Z,14.17
2019-02-28T07:55:41.338Z,16.43
2019-02-28T07:58:11.436Z,16.00
2019-02-28T08:00:45.758Z,17.63
2019-02-28T08:03:17.421Z,14.53
2019-02-28T08:05:45.860Z,13.70
2019-02-28T08:08:18.455Z,15.73
2019-02-28T08:10:55.906Z,16.57
2019-02-28T08:13:26.158Z,16.70
2019-02-28T08:15:56.842Z,16.77
2019-02-28T08:18:27.217Z,16.13
2019-02-28T08:20:58.134Z,16.77
2019-02-28T08:23:30.248Z,16.50
2019-02-28T08:26:02.522Z,17.43
2019-02-28T08:28:36.749Z,19.10
2019-02-28T08:31:04.480Z,17.17
2019-02-28T08:33:38.588Z,18.70
2019-02-28T08:36:12.675Z,18.97
2019-02-28T08:38:46.954Z,18.67
2019-02-28T08:41:18.600Z,19.03
2019-02-28T08:43:49.946Z,20.23
2019-02-28T08:46:19.214Z,17.80
2019-02-28T08:48:47.944Z,19.73
2019-02-28T08:51:16.403Z,21.20
2019-02-28T08:53:50.799Z,18.70
2019-02-28T08:56:20.675Z,19.57
2019-02-28T08:58:51.103Z,21.37
2019-02-28T09:01:21.177Z,17.80
2019-02-28T09:03:52.114Z,18.40
2019-02-28T09:06:37.937Z,16.57
2019-02-28T09:09:15.401Z,20.77
2019-02-28T09:11:44.221Z,18.73
2019-02-28T09:14:17.998Z,18.43
2019-02-28T09:16:59.113Z,17.53
2019-02-28T09:19:27.543Z,18.17
2019-02-28T09:22:03.866Z,17.40
2019-02-28T09:24:35.121Z,19.17
2019-02-28T09:27:04.078Z,20.73
2019-02-28T09:29:38.882Z,19.37
2019-02-28T09:32:13.609Z,18.73
2019-02-28T09:34:41.208Z,20.77
2019-02-28T09:37:09.943Z,18.17
2019-02-28T09:39:38.403Z,18.10
2019-02-28T09:42:14.862Z,17.40
2019-02-28T09:44:45.599Z,17.17
2019-02-28T09:47:16.758Z,18.53
2019-02-28T09:49:47.162Z,17.77
2019-02-28T09:52:17.307Z,17.57
2019-02-28T09:54:45.727Z,16.37
2019-02-28T09:57:15.404Z,18.37
2019-02-28T09:59:56.326Z,19.17
2019-02-28T10:02:26.406Z,19.33
2019-02-28T10:05:06.588Z,15.70
2019-02-28T10:07:41.630Z,17.83
2019-02-28T10:10:22.055Z,18.70
2019-02-28T10:12:53.566Z,18.07
2019-02-28T10:15:27.140Z,18.37
2019-02-28T10:17:57.208Z,17.10
2019-02-28T10:20:41.834Z,19.37
2019-02-28T10:23:09.106Z,22.87
2019-02-28T10:25:43.706Z,17.50
2019-02-28T10:28:16.619Z,18.90
2019-02-28T10:30:47.179Z,21.07
2019-02-28T10:33:17.176Z,22.33
2019-02-28T10:35:48.486Z,21.17
2019-02-28T10:38:18.567Z,23.03
2019-02-28T10:40:49.361Z,18.63
2019-02-28T10:43:20.046Z,20.43
2019-02-28T10:45:56.961Z,22.77
2019-02-28T10:48:29.758Z,23.07
2019-02-28T10:51:01.354Z,21.17
2019-02-28T10:53:36.229Z,18.57
2019-02-28T10:56:05.330Z,24.13
2019-02-28T10:58:33.755Z,21.17
2019-02-28T11:01:11.362Z,20.77
2019-02-28T11:03:44.894Z,20.43
2019-02-28T11:06:13.486Z,21.23
2019-02-28T11:08:47.455Z,20.90
2019-02-28T11:11:17.519Z,21.10
2019-02-28T11:13:47.582Z,22.20
2019-02-28T11:16:23.586Z,21.87
2019-02-28T11:18:51.929Z,22.27
2019-02-28T11:21:23.553Z,21.80
2019-02-28T11:23:54.688Z,24.00
2019-02-28T11:26:29.154Z,26.30
2019-02-28T11:29:02.874Z,24.53
2019-02-28T11:31:32.805Z,25.43
2019-02-28T11:34:04.362Z,25.90
2019-02-28T11:36:34.168Z,25.03
2019-02-28T11:39:04.966Z,24.50
2019-02-28T11:41:36.369Z,23.30
2019-02-28T11:44:04.792Z,20.40
2019-02-28T11:46:36.560Z,22.73
2019-02-28T11:49:13.786Z,24.70
2019-02-28T11:51:49.422Z,19.30
2019-02-28T11:54:18.479Z,22.43
2019-02-28T11:56:52.733Z,21.97
2019-02-28T11:59:25.326Z,19.10
2019-02-28T12:01:53.833Z,20.80
2019-02-28T12:04:32.450Z,19.53
2019-02-28T12:07:05.601Z,20.70
2019-02-28T12:09:35.651Z,21.23
2019-02-28T12:12:10.424Z,21.83
2019-02-28T12:14:38.981Z,21.87
2019-02-28T12:17:15.016Z,20.63
2019-02-28T12:19:47.590Z,24.27
2019-02-28T12:22:20.394Z,23.97
2019-02-28T12:24:50.459Z,23.23
2019-02-28T12:27:24.412Z,26.00
2019-02-28T12:30:10.582Z,26.47
2019-02-28T12:32:40.266Z,27.43
2019-02-28T12:35:12.662Z,26.27
2019-02-28T12:37:42.737Z,30.80
2019-02-28T12:40:31.941Z,27.70
2019-02-28T12:43:08.539Z,28.10
2019-02-28T12:45:38.076Z,26.33
2019-02-28T12:48:08.158Z,23.30
2019-02-28T12:50:36.573Z,21.63
2019-02-28T12:53:06.986Z,30.23
2019-02-28T12:55:39.119Z,25.60
2019-02-28T12:58:07.345Z,27.13
2019-02-28T13:00:37.811Z,26.10
2019-02-28T13:03:12.395Z,24.27
2019-02-28T13:05:40.885Z,27.17
2019-02-28T13:08:09.934Z,26.27
2019-02-28T13:10:42.180Z,23.33
2019-02-28T13:13:13.866Z,24.17
2019-02-28T13:15:46.839Z,25.40
2019-02-28T13:18:18.203Z,25.07
2019-02-28T13:20:49.683Z,26.30
2019-02-28T13:23:18.101Z,23.33
2019-02-28T13:25:51.835Z,23.60
2019-02-28T13:28:24.821Z,24.33
2019-02-28T13:30:53.418Z,26.07
2019-02-28T13:33:25.211Z,23.30
2019-02-28T13:35:56.953Z,23.93
2019-02-28T13:38:31.198Z,26.63
2019-02-28T13:41:02.391Z,23.20
2019-02-28T13:43:35.198Z,24.00
2019-02-28T13:46:04.095Z,23.00
2019-02-28T13:48:34.981Z,24.50
2019-02-28T13:51:08.507Z,29.10
2019-02-28T13:53:39.513Z,23.00
2019-02-28T13:56:11.169Z,21.93
2019-02-28T13:58:39.607Z,23.77
2019-02-28T14:01:10.720Z,21.03
2019-02-28T14:03:42.318Z,22.23
2019-02-28T14:06:18.876Z,20.53
2019-02-28T14:08:46.110Z,23.30
2019-02-28T14:11:20.114Z,22.03
2019-02-28T14:13:51.346Z,20.73
2019-02-28T14:16:26.395Z,24.70
2019-02-28T14:18:58.151Z,21.17
2019-02-28T14:21:26.737Z,22.83
2019-02-28T14:24:01.164Z,24.33
2019-02-28T14:26:32.243Z,22.00
2019-02-28T14:29:03.632Z,21.67
2019-02-28T14:31:32.971Z,23.20
2019-02-28T14:34:02.535Z,19.30
2019-02-28T14:36:35.737Z,20.60
2019-02-28T14:39:08.280Z,23.27
2019-02-28T14:41:41.963Z,24.03
2019-02-28T14:44:13.106Z,18.93
2019-02-28T14:46:44.293Z,21.77
2019-02-28T14:49:13.653Z,22.43
2019-02-28T14:51:42.349Z,21.37
2019-02-28T14:54:14.121Z,21.40
2019-02-28T14:56:54.389Z,20.77
2019-02-28T14:59:22.810Z,18.80
2019-02-28T15:02:00.205Z,17.50
2019-02-28T15:04:32.859Z,36.27
2019-02-28T15:07:04.355Z,22.23
2019-02-28T15:09:50.058Z,23.50
2019-02-28T15:12:24.600Z,17.93
2019-02-28T15:14:54.713Z,21.70
2019-02-28T15:17:24.806Z,18.40
2019-02-28T15:19:53.224Z,17.37
2019-02-28T15:22:30.981Z,19.83
2019-02-28T15:25:08.021Z,23.00
2019-02-28T15:27:39.880Z,17.37
2019-02-28T15:30:33.741Z,14.80
2019-02-28T15:33:04.725Z,15.87
2019-02-28T15:35:33.223Z,20.67
2019-02-28T15:38:01.661Z,26.57
2019-02-28T15:40:35.439Z,15.23
2019-02-28T15:43:04.038Z,18.43
2019-02-28T15:45:36.574Z,16.03
2019-02-28T15:48:05.743Z,14.20
2019-02-28T15:50:35.525Z,30.10
2019-02-28T15:53:04.325Z,19.77
2019-02-28T15:55:36.562Z,18.73
2019-02-28T15:58:05.859Z,16.13
2019-02-28T16:00:36.393Z,15.57
2019-02-28T16:03:05.617Z,14.17
2019-02-28T16:05:42.538Z,15.37
2019-02-28T16:08:10.815Z,19.77
2019-02-28T16:10:41.062Z,17.10
2019-02-28T16:13:09.491Z,15.07
2019-02-28T16:15:43.186Z,14.50
2019-02-28T16:18:18.737Z,19.50
2019-02-28T16:20:47.171Z,54.87
2019-02-28T16:23:16.016Z,26.63
2019-02-28T16:25:47.865Z,20.37
2019-02-28T16:28:17.287Z,18.03
2019-02-28T16:30:45.782Z,19.13
2019-02-28T16:33:14.213Z,20.27
2019-02-28T16:35:46.671Z,20.90
2019-02-28T16:38:19.861Z,20.17
2019-02-28T16:40:48.566Z,20.60
2019-02-28T16:43:17.410Z,21.00
2019-02-28T16:45:57.504Z,23.97
2019-02-28T16:48:26.194Z,21.83
2019-02-28T16:50:57.857Z,25.00
2019-02-28T16:53:32.566Z,23.83
2019-02-28T16:56:10.874Z,24.57
2019-02-28T16:58:40.382Z,22.63
2019-02-28T17:01:09.090Z,25.27
2019-02-28T17:03:38.416Z,23.53
2019-02-28T17:06:07.648Z,26.40
2019-02-28T17:08:37.805Z,26.53
2019-02-28T17:11:06.231Z,23.53
2019-02-28T17:13:38.872Z,25.73
2019-02-28T17:16:14.049Z,26.00
2019-02-28T17:18:48.470Z,25.00
2019-02-28T17:21:18.077Z,26.33
2019-02-28T17:23:49.681Z,28.60
2019-02-28T17:26:22.674Z,27.00
2019-02-28T17:28:58.430Z,28.43
2019-02-28T17:31:28.509Z,27.13
2019-02-28T17:33:58.539Z,24.60
2019-02-28T17:36:32.988Z,27.33
2019-02-28T17:39:01.713Z,25.57
2019-02-28T17:41:33.870Z,26.00
2019-02-28T17:44:28.806Z,30.63
2019-02-28T17:47:00.661Z,31.13
2019-02-28T17:49:49.823Z,25.57
2019-02-28T17:52:46.986Z,28.00
2019-02-28T17:55:34.810Z,31.07
2019-02-28T17:58:18.204Z,29.00
2019-02-28T18:01:13.831Z,27.70
2019-02-28T18:03:48.464Z,26.40
2019-02-28T18:06:33.189Z,31.60
2019-02-28T18:09:19.589Z,32.10
2019-02-28T18:12:23.506Z,30.40
2019-02-28T18:15:09.658Z,32.43
2019-02-28T18:17:41.302Z,26.13
2019-02-28T18:20:38.839Z,27.50
2019-02-28T18:23:21.091Z,30.93
2019-02-28T18:26:09.770Z,30.40
2019-02-28T18:28:58.034Z,32.73
2019-02-28T18:31:25.849Z,29.50
2019-02-28T18:33:58.302Z,30.10
2019-02-28T18:36:32.506Z,29.33
2019-02-28T18:39:04.802Z,32.63
2019-02-28T18:41:35.116Z,34.37
2019-02-28T18:44:04.962Z,30.23
2019-02-28T18:46:33.661Z,26.83
2019-02-28T18:49:14.077Z,30.23
2019-02-28T18:51:45.597Z,28.77
2019-02-28T18:54:16.274Z,28.63
2019-02-28T18:56:44.665Z,29.93
2019-02-28T18:59:16.352Z,32.27
2019-02-28T19:01:44.807Z,31.10
2019-02-28T19:04:13.227Z,32.03
2019-02-28T19:06:44.327Z,32.20
2019-02-28T19:09:24.644Z,33.93
2019-02-28T19:11:55.807Z,30.60
2019-02-28T19:14:24.246Z,29.00
2019-02-28T19:16:52.681Z,34.63
2019-02-28T19:19:32.585Z,30.00
2019-02-28T19:22:03.955Z,31.93
2019-02-28T19:24:32.409Z,33.20
2019-02-28T19:27:06.292Z,29.30
2019-02-28T19:29:34.779Z,30.13
2019-02-28T19:32:05.169Z,33.13
2019-02-28T19:34:41.989Z,27.53
2019-02-28T19:37:12.654Z,26.93
2019-02-28T19:39:42.912Z,28.03
2019-02-28T19:42:18.473Z,27.17
2019-02-28T19:44:47.107Z,27.90
2019-02-28T19:47:15.534Z,28.40
2019-02-28T19:49:45.604Z,29.63
2019-02-28T19:52:14.034Z,30.40
2019-02-28T19:54:45.650Z,28.03
2019-02-28T19:57:14.075Z,32.13
2019-02-28T19:59:48.438Z,36.70
2019-02-28T20:02:21.230Z,32.93
2019-02-28T20:04:55.363Z,32.23
2019-02-28T20:07:26.338Z,30.50
2019-02-28T20:09:56.293Z,30.90
2019-02-28T20:12:28.248Z,32.73
2019-02-28T20:14:56.692Z,32.00
2019-02-28T20:17:30.733Z,28.83
2019-02-28T20:20:05.174Z,31.03
2019-02-28T20:22:38.343Z,31.97
2019-02-28T20:25:05.413Z,32.53
2019-02-28T20:27:45.264Z,29.97
2019-02-28T20:30:18.234Z,25.93
2019-02-28T20:32:46.657Z,29.17
2019-02-28T20:35:15.529Z,27.53
2019-02-28T20:37:44.113Z,27.73
2019-02-28T20:40:15.388Z,27.63
2019-02-28T20:42:43.830Z,30.77
2019-02-28T20:45:17.028Z,28.00
2019-02-28T20:47:45.454Z,27.00
2019-02-28T20:50:26.882Z,27.87
2019-02-28T20:52:55.299Z,33.00
2019-02-28T20:55:26.389Z,36.47
2019-02-28T20:57:54.801Z,31.60
2019-02-28T21:00:24.858Z,32.53
2019-02-28T21:02:55.896Z,31.60
2019-02-28T21:05:32.489Z,34.87
2019-02-28T21:08:02.634Z,36.60
2019-02-28T21:10:32.699Z,36.43
2019-02-28T21:13:02.760Z,35.17
2019-02-28T21:15:33.737Z,38.03
2019-02-28T21:18:02.185Z,35.27
2019-02-28T21:20:30.629Z,35.33
2019-02-28T21:23:08.166Z,35.17
2019-02-28T21:25:41.133Z,35.70
2019-02-28T21:28:17.974Z,33.80
2019-02-28T21:30:46.414Z,33.70
2019-02-28T21:33:20.121Z,35.83
2019-02-28T21:35:51.466Z,28.67
2019-02-28T21:38:22.638Z,29.83
2019-02-28T21:40:53.776Z,28.93
2019-02-28T21:43:26.801Z,24.63
2019-02-28T21:45:59.421Z,28.53
2019-02-28T21:48:29.486Z,28.30
2019-02-28T21:50:59.620Z,24.47
2019-02-28T21:53:34.273Z,23.30
2019-02-28T21:56:09.810Z,25.43
2019-02-28T21:58:38.233Z,29.83
2019-02-28T22:01:08.566Z,30.10
2019-02-28T22:03:36.979Z,33.00
2019-02-28T22:06:11.005Z,32.23
2019-02-28T22:08:41.095Z,35.43
2019-02-28T22:11:14.215Z,31.97
2019-02-28T22:13:45.337Z,29.30
2019-02-28T22:16:25.111Z,32.53
2019-02-28T22:18:56.266Z,35.87
2019-02-28T22:21:35.209Z,36.33
2019-02-28T22:24:06.050Z,32.87
2019-02-28T22:26:40.262Z,36.33
2019-02-28T22:29:10.336Z,35.57
2019-02-28T22:31:52.386Z,31.77
2019-02-28T22:34:22.446Z,34.43
2019-02-28T22:36:55.086Z,31.17
2019-02-28T22:39:25.974Z,28.63
2019-02-28T22:41:54.654Z,34.27
2019-02-28T22:44:23.082Z,26.97
2019-02-28T22:46:57.542Z,30.37
2019-02-28T22:49:29.118Z,22.33
2019-02-28T22:52:00.488Z,22.90
2019-02-28T22:54:28.920Z,22.93
2019-02-28T22:57:03.127Z,23.23
2019-02-28T22:59:33.198Z,19.60
2019-02-28T23:02:01.627Z,19.97
2019-02-28T23:04:34.385Z,19.63
2019-02-28T23:07:08.538Z,16.63
2019-02-28T23:09:37.033Z,16.93
2019-02-28T23:12:08.530Z,15.27
2019-02-28T23:14:38.603Z,17.40
2019-02-28T23:17:10.087Z,15.47
2019-02-28T23:19:38.515Z,16.37
2019-02-28T23:22:11.231Z,17.10
2019-02-28T23:24:46.014Z,14.13
2019-02-28T23:27:23.618Z,18.10
2019-02-28T23:29:55.117Z,15.27
2019-02-28T23:32:37.141Z,18.03
2019-02-28T23:35:18.975Z,17.90
2019-02-28T23:37:49.035Z,17.97
2019-02-28T23:40:22.035Z,15.43
2019-02-28T23:42:53.309Z,21.00
2019-02-28T23:45:27.592Z,17.73
2019-02-28T23:47:58.927Z,19.90
2019-02-28T23:50:28.995Z,17.73
2019-02-28T23:52:59.054Z,20.20
2019-02-28T23:55:39.437Z,19.10
2019-02-28T23:58:07.863Z,21.57
